Time;durP1;ratioP1;P1;durP2;ratioP2;P2;SDS_P1;SDS_P2;PMS_P1;PMS_P2;Temp;Humidity;BMP_temperature;BMP_pressure;BME280_temperature;BME280_humidity;BME280_pressure;Samples;Min_cycle;Max_cycle;Signal;HPM_P1;HPM_P2
2021/11/11 00:01:11;;;;;;;105.38;39.08;;;;;;;-0.30;100.00;102435.72;5285288;28;20063;-71
2021/11/11 00:03:42;;;;;;;111.70;43.55;;;;;;;-0.33;100.00;102434.97;5284653;28;20109;-72
2021/11/11 00:06:12;;;;;;;90.32;37.13;;;;;;;-0.29;100.00;102445.34;5283734;28;20015;-70
2021/11/11 00:08:44;;;;;;;87.68;34.75;;;;;;;-0.28;100.00;102444.41;5269784;28;20035;-71
2021/11/11 00:11:14;;;;;;;94.72;36.75;;;;;;;-0.24;100.00;102441.69;5284425;28;20104;-71
2021/11/11 00:13:45;;;;;;;90.75;35.65;;;;;;;-0.21;100.00;102447.66;5284988;28;20602;-71
2021/11/11 00:16:15;;;;;;;94.72;35.08;;;;;;;0.04;100.00;102455.50;5282808;28;20035;-70
2021/11/11 00:18:46;;;;;;;87.22;33.47;;;;;;;0.10;100.00;102434.19;5283195;28;20046;-71
2021/11/11 00:21:17;;;;;;;91.15;33.45;;;;;;;0.04;100.00;102430.91;5282831;28;20032;-71
2021/11/11 00:23:47;;;;;;;83.65;33.72;;;;;;;-0.08;100.00;102430.47;5283220;28;20023;-72
2021/11/11 00:26:18;;;;;;;88.32;33.67;;;;;;;-0.18;100.00;102430.88;5283093;28;20469;-72
2021/11/11 00:28:49;;;;;;;75.85;32.03;;;;;;;-0.28;100.00;102423.31;5283310;28;20023;-72
2021/11/11 00:31:20;;;;;;;92.53;35.75;;;;;;;-0.36;100.00;102421.88;5283451;28;20023;-71
2021/11/11 00:33:52;;;;;;;88.97;33.13;;;;;;;-0.43;100.00;102421.25;5283392;28;20037;-72
2021/11/11 00:36:23;;;;;;;93.10;34.58;;;;;;;-0.45;100.00;102419.56;5282418;28;20027;-71
2021/11/11 00:38:54;;;;;;;80.03;32.17;;;;;;;-0.42;100.00;102416.84;5282525;28;20024;-73
2021/11/11 00:41:24;;;;;;;74.90;31.50;;;;;;;-0.38;100.00;102414.03;5283256;28;20231;-72
2021/11/11 00:43:55;;;;;;;96.25;34.75;;;;;;;-0.39;100.00;102419.38;5282784;28;20038;-71
2021/11/11 00:46:25;;;;;;;109.60;36.95;;;;;;;-0.45;100.00;102409.91;5282747;28;20069;-71
2021/11/11 00:48:56;;;;;;;85.55;33.95;;;;;;;-0.49;100.00;102405.66;5284032;28;20473;-72
2021/11/11 00:51:27;;;;;;;95.00;33.03;;;;;;;-0.52;100.00;102405.78;5286938;28;20024;-71
2021/11/11 00:53:57;;;;;;;83.75;29.88;;;;;;;-0.52;100.00;102416.31;5286824;28;20181;-71
2021/11/11 00:56:28;;;;;;;78.53;30.92;;;;;;;-0.45;100.00;102401.13;5286854;28;20024;-69
2021/11/11 00:58:59;;;;;;;86.68;32.85;;;;;;;-0.42;100.00;102401.00;5286525;28;20496;-69
2021/11/11 01:01:30;;;;;;;88.00;33.28;;;;;;;-0.47;100.00;102395.06;5286247;28;20038;-70
2021/11/11 01:04:01;;;;;;;90.60;34.00;;;;;;;-0.55;100.00;102396.22;5286890;28;20498;-70
2021/11/11 01:06:32;;;;;;;93.68;34.80;;;;;;;-0.58;100.00;102398.09;5286966;28;20027;-71
2021/11/11 01:09:03;;;;;;;92.05;32.00;;;;;;;-0.61;100.00;102396.41;5286941;28;20024;-70
2021/11/11 01:11:33;;;;;;;108.57;34.60;;;;;;;-0.64;100.00;102401.81;5286839;28;20405;-70
2021/11/11 01:14:04;;;;;;;93.30;31.55;;;;;;;-0.68;100.00;102404.63;5286425;28;20039;-70
2021/11/11 01:16:35;;;;;;;141.73;32.35;;;;;;;-0.72;100.00;102406.50;5286541;28;20039;-70
2021/11/11 01:19:05;;;;;;;77.70;29.73;;;;;;;-0.72;100.00;102410.91;5286052;28;20438;-71
2021/11/11 01:21:36;;;;;;;109.38;33.13;;;;;;;-0.73;100.00;102417.09;5286275;28;20050;-70
2021/11/11 01:24:07;;;;;;;106.78;32.53;;;;;;;-0.74;100.00;102415.41;5286273;28;20392;-71
2021/11/11 01:26:37;;;;;;;79.07;30.75;;;;;;;-0.80;100.00;102416.47;5285841;28;20019;-70
2021/11/11 01:29:08;;;;;;;70.38;28.05;;;;;;;-0.83;100.00;102417.44;5285742;28;20066;-71
2021/11/11 01:31:39;;;;;;;85.05;30.52;;;;;;;-0.82;100.00;102424.41;5286436;28;20023;-70
2021/11/11 01:34:09;;;;;;;72.88;31.00;;;;;;;-0.82;100.00;102413.88;5285848;28;20525;-70
2021/11/11 01:36:40;;;;;;;69.63;30.05;;;;;;;-0.81;100.00;102415.59;5285989;28;20612;-70
2021/11/11 01:39:11;;;;;;;72.43;31.10;;;;;;;-0.81;100.00;102412.94;5285376;28;20030;-70
2021/11/11 01:41:45;;;;;;;73.35;28.92;;;;;;;-0.82;100.00;102398.06;5286318;28;20118;-70
2021/11/11 01:44:16;;;;;;;70.70;28.88;;;;;;;-0.75;100.00;102401.34;5286297;28;20114;-70
2021/11/11 01:46:47;;;;;;;77.18;30.35;;;;;;;-0.67;100.00;102406.34;5286052;28;20343;-70
2021/11/11 01:49:17;;;;;;;91.68;32.50;;;;;;;-0.69;100.00;102400.28;5285782;28;20560;-70
2021/11/11 01:51:48;;;;;;;90.90;31.50;;;;;;;-0.71;100.00;102402.09;5286168;28;20023;-70
2021/11/11 01:54:19;;;;;;;89.25;32.53;;;;;;;-0.73;100.00;102404.78;5286251;28;20464;-70
2021/11/11 01:56:50;;;;;;;80.13;31.60;;;;;;;-0.74;100.00;102402.22;5285798;28;20046;-70
2021/11/11 01:59:20;;;;;;;88.57;32.38;;;;;;;-0.74;100.00;102402.22;5285607;28;20529;-70
2021/11/11 02:01:51;;;;;;;75.78;30.48;;;;;;;-0.77;100.00;102397.03;5285120;28;20034;-70
2021/11/11 02:04:22;;;;;;;82.05;31.23;;;;;;;-0.76;100.00;102399.63;5267535;28;20019;-70
2021/11/11 02:06:53;;;;;;;88.60;32.40;;;;;;;-0.75;100.00;102392.56;5285509;28;20114;-71
2021/11/11 02:09:24;;;;;;;76.50;30.55;;;;;;;-0.75;100.00;102387.28;5285625;28;20114;-71
2021/11/11 02:11:55;;;;;;;80.90;31.15;;;;;;;-0.75;100.00;102389.94;5285489;28;20031;-71
2021/11/11 02:14:25;;;;;;;74.78;28.25;;;;;;;-0.72;100.00;102387.19;5266599;28;20446;-71
2021/11/11 02:16:56;;;;;;;78.07;28.33;;;;;;;-0.68;100.00;102388.81;5285171;28;20515;-71
2021/11/11 02:19:27;;;;;;;78.88;30.55;;;;;;;-0.61;100.00;102387.66;5285482;28;20131;-72
2021/11/11 02:21:57;;;;;;;67.45;27.42;;;;;;;-0.56;100.00;102386.56;5285751;28;20423;-71
2021/11/11 02:24:39;;;;;;;82.05;31.92;;;;;;;-0.47;100.00;102390.63;5285588;28;20215;-72
2021/11/11 02:27:10;;;;;;;93.47;32.95;;;;;;;-0.39;100.00;102391.22;5285782;28;20446;-73
2021/11/11 02:29:41;;;;;;;80.80;30.70;;;;;;;-0.31;100.00;102393.56;5267165;28;20041;-70
2021/11/11 02:32:11;;;;;;;77.78;30.80;;;;;;;-0.24;100.00;102388.91;5285318;28;20027;-70
2021/11/11 02:34:42;;;;;;;78.43;29.40;;;;;;;-0.23;100.00;102386.22;5285375;28;20494;-70
2021/11/11 02:37:13;;;;;;;71.88;28.23;;;;;;;-0.19;100.00;102369.34;5284417;28;20067;-71
2021/11/11 02:39:44;;;;;;;69.07;28.10;;;;;;;-0.16;100.00;102376.28;5285041;28;20099;-71
2021/11/11 02:42:17;;;;;;;74.93;30.58;;;;;;;-0.10;100.00;102371.63;5266585;28;20115;-71
2021/11/11 02:44:48;;;;;;;82.85;29.67;;;;;;;-0.09;100.00;102372.50;5284981;28;20541;-70
2021/11/11 02:47:19;;;;;;;74.32;29.08;;;;;;;-0.06;100.00;102372.34;5284248;28;20442;-71
2021/11/11 02:49:52;;;;;;;75.53;28.23;;;;;;;-0.06;100.00;102367.94;5284522;28;20509;-71
2021/11/11 02:52:23;;;;;;;78.68;31.05;;;;;;;-0.06;100.00;102378.50;5284774;28;20061;-71
2021/11/11 02:54:54;;;;;;;84.55;30.02;;;;;;;0.02;100.00;102375.56;5284886;28;20108;-71
2021/11/11 02:57:26;;;;;;;81.47;29.98;;;;;;;0.10;100.00;102380.50;5284285;28;20577;-71
2021/11/11 03:00:00;;;;;;;73.40;30.35;;;;;;;0.16;100.00;102380.28;5266486;28;20039;-71
2021/11/11 03:02:34;;;;;;;78.22;30.55;;;;;;;0.27;100.00;102374.56;5284572;28;20165;-70
2021/11/11 03:05:09;;;;;;;76.65;28.88;;;;;;;0.30;100.00;102371.78;5284640;28;20048;-71
2021/11/11 03:07:41;;;;;;;69.22;28.60;;;;;;;0.28;100.00;102378.94;5284583;28;20161;-71
2021/11/11 03:10:16;;;;;;;69.13;28.20;;;;;;;0.27;100.00;102375.44;5284772;28;20091;-71
2021/11/11 03:12:48;;;;;;;57.50;24.15;;;;;;;0.30;100.00;102374.44;5283544;28;20089;-72
2021/11/11 03:15:21;;;;;;;72.32;29.95;;;;;;;0.31;100.00;102374.38;5284337;28;20047;-73
2021/11/11 03:17:53;;;;;;;75.53;29.00;;;;;;;0.37;100.00;102370.63;5283886;28;20055;-72
2021/11/11 03:20:24;;;;;;;73.28;29.98;;;;;;;0.41;100.00;102356.38;5284654;28;20107;-72
2021/11/11 03:22:55;;;;;;;74.53;30.52;;;;;;;0.44;100.00;102357.09;5284645;28;20028;-72
2021/11/11 03:25:28;;;;;;;69.85;28.33;;;;;;;0.49;100.00;102364.81;5284361;28;20094;-71
2021/11/11 03:27:59;;;;;;;71.38;30.10;;;;;;;0.54;100.00;102357.56;5284169;28;20020;-71
2021/11/11 03:30:30;;;;;;;85.57;32.58;;;;;;;0.59;100.00;102360.03;5285699;28;20055;-72
2021/11/11 03:33:03;;;;;;;82.03;32.35;;;;;;;0.63;100.00;102364.25;5292006;28;20441;-72
2021/11/11 03:35:35;;;;;;;82.40;31.17;;;;;;;0.68;100.00;102365.78;5278853;28;20043;-71
2021/11/11 03:38:07;;;;;;;74.25;28.55;;;;;;;0.71;100.00;102365.66;5300444;28;20031;-72
2021/11/11 03:40:42;;;;;;;73.53;31.02;;;;;;;0.76;100.00;102365.47;5301423;28;20031;-71
2021/11/11 03:43:13;;;;;;;89.30;30.60;;;;;;;0.81;100.00;102365.25;5297036;28;20357;-71
2021/11/11 03:45:44;;;;;;;69.97;29.65;;;;;;;0.88;100.00;102366.69;5296034;28;20053;-71
2021/11/11 03:48:14;;;;;;;70.30;28.55;;;;;;;0.93;100.00;102364.72;5292113;28;20028;-71
2021/11/11 03:50:45;;;;;;;79.88;30.23;;;;;;;1.00;100.00;102363.50;5291256;28;20490;-71
2021/11/11 03:53:16;;;;;;;76.22;31.48;;;;;;;1.04;100.00;102368.59;5286814;28;20031;-71
2021/11/11 03:55:47;;;;;;;80.00;30.85;;;;;;;1.09;100.00;102373.69;5284766;28;20031;-71
2021/11/11 03:58:17;;;;;;;74.50;29.25;;;;;;;1.11;100.00;102371.84;5283815;28;20395;-71
2021/11/11 04:00:48;;;;;;;84.35;33.83;;;;;;;1.12;100.00;102378.00;5283287;28;20111;-72
2021/11/11 04:03:19;;;;;;;70.90;28.88;;;;;;;1.14;100.00;102384.06;5283714;28;20047;-71
2021/11/11 04:05:49;;;;;;;79.78;30.15;;;;;;;1.16;100.00;102379.56;5283611;28;20028;-72
2021/11/11 04:08:20;;;;;;;79.97;30.85;;;;;;;1.21;100.00;102382.88;5283703;28;20108;-72
2021/11/11 04:10:50;;;;;;;80.93;31.85;;;;;;;1.26;100.00;102380.88;5283769;28;20297;-72
2021/11/11 04:13:21;;;;;;;81.20;27.85;;;;;;;1.31;100.00;102380.69;5283195;28;20508;-70
2021/11/11 04:15:52;;;;;;;80.47;31.15;;;;;;;1.34;100.00;102373.44;5283356;28;20469;-70
2021/11/11 04:18:22;;;;;;;85.90;31.52;;;;;;;1.36;100.00;102383.97;5283727;28;20085;-71
2021/11/11 04:20:53;;;;;;;85.90;31.65;;;;;;;1.39;100.00;102389.97;5284033;28;20077;-71
2021/11/11 04:23:24;;;;;;;85.78;31.95;;;;;;;1.47;100.00;102387.84;5285350;28;20027;-70
2021/11/11 04:26:03;;;;;;;87.53;31.05;;;;;;;1.47;100.00;102379.91;5287984;28;20023;-71
2021/11/11 04:28:38;;;;;;;79.30;32.20;;;;;;;1.52;100.00;102379.69;5287955;28;20036;-71
2021/11/11 04:31:17;;;;;;;71.35;30.17;;;;;;;1.56;100.00;102386.56;5287918;28;20034;-71
2021/11/11 04:33:51;;;;;;;78.40;32.13;;;;;;;1.59;100.00;102370.53;5287287;28;20065;-72
2021/11/11 04:46:50;;;;;;;67.05;28.38;;;;;;;1.85;100.00;102376.38;5286972;28;20564;-71
2021/11/11 04:49:43;;;;;;;80.40;31.27;;;;;;;1.82;100.00;102385.34;5274997;28;20070;-71
2021/11/11 04:52:30;;;;;;;81.18;30.00;;;;;;;1.87;100.00;102372.75;5287512;28;20520;-72
2021/11/11 05:05:47;;;;;;;76.22;29.80;;;;;;;1.98;100.00;102388.97;5287272;28;20203;-72
2021/11/11 05:08:17;;;;;;;83.28;32.30;;;;;;;2.01;100.00;102394.13;5268896;28;20027;-72
2021/11/11 05:10:50;;;;;;;76.70;30.42;;;;;;;2.05;100.00;102389.53;5287332;28;20072;-71
2021/11/11 05:13:21;;;;;;;78.43;30.70;;;;;;;2.09;100.00;102401.69;5268708;28;20027;-71
2021/11/11 05:15:51;;;;;;;76.20;30.38;;;;;;;2.10;100.00;102399.91;5286224;28;20232;-71
2021/11/11 05:18:22;;;;;;;92.28;32.55;;;;;;;2.14;100.00;102383.78;5286532;28;20027;-70
2021/11/11 05:20:53;;;;;;;73.60;30.27;;;;;;;2.19;100.00;102394.16;5286693;28;20026;-71
2021/11/11 05:23:23;;;;;;;87.07;32.83;;;;;;;2.20;100.00;102386.13;5286666;28;20076;-70
2021/11/11 05:25:55;;;;;;;82.10;36.08;;;;;;;2.22;100.00;102396.69;5286233;28;20461;-70
2021/11/11 05:28:25;;;;;;;76.78;31.02;;;;;;;2.23;100.00;102401.03;5286406;28;20477;-70
2021/11/11 05:30:56;;;;;;;80.22;30.85;;;;;;;2.26;100.00;102393.81;5286368;28;20098;-71
2021/11/11 05:33:27;;;;;;;88.18;32.03;;;;;;;2.27;100.00;102395.50;5286392;28;20019;-70
2021/11/11 05:35:57;;;;;;;81.47;31.95;;;;;;;2.30;100.00;102384.75;5285475;28;20040;-70
2021/11/11 05:38:28;;;;;;;79.93;32.30;;;;;;;2.36;100.00;102394.22;5286426;28;20019;-72
2021/11/11 05:40:58;;;;;;;73.47;30.70;;;;;;;2.36;100.00;102403.91;5286096;28;20094;-70
2021/11/11 05:43:35;;;;;;;79.38;30.83;;;;;;;2.39;100.00;102407.28;5286230;28;20027;-70
2021/11/11 05:46:05;;;;;;;92.03;30.58;;;;;;;2.42;100.00;102403.66;5286500;28;20152;-70
2021/11/11 05:48:36;;;;;;;75.70;31.10;;;;;;;2.48;100.00;102404.19;5286243;28;20031;-70
2021/11/11 05:51:06;;;;;;;82.13;32.90;;;;;;;2.48;100.00;102408.63;5286620;28;20055;-72
2021/11/11 05:53:37;;;;;;;72.80;31.33;;;;;;;2.53;100.00;102411.91;5268140;28;20051;-68
2021/11/11 05:56:08;;;;;;;76.00;30.60;;;;;;;2.52;100.00;102415.50;5286468;28;20028;-69
2021/11/11 05:58:38;;;;;;;78.28;31.50;;;;;;;2.55;100.00;102410.03;5274812;27;20029;-70
2021/11/11 06:01:08;;;;;;;80.32;33.28;;;;;;;2.60;100.00;102397.41;5254418;28;20032;-69
2021/11/11 06:03:39;;;;;;;88.78;32.58;;;;;;;2.59;100.00;102401.00;5283764;28;20500;-69
2021/11/11 06:06:09;;;;;;;98.80;34.20;;;;;;;2.60;100.00;102397.41;5285425;28;20384;-70
2021/11/11 06:08:40;;;;;;;80.13;31.50;;;;;;;2.63;100.00;102399.91;5285499;28;20059;-69
2021/11/11 06:11:11;;;;;;;82.18;31.80;;;;;;;2.67;100.00;102396.19;5285257;28;20023;-69
2021/11/11 06:13:41;;;;;;;82.32;31.45;;;;;;;2.69;100.00;102406.69;5285234;28;20023;-70
2021/11/11 06:16:12;;;;;;;80.43;30.60;;;;;;;2.71;100.00;102407.47;5284825;28;20024;-69
2021/11/11 06:18:42;;;;;;;75.63;32.00;;;;;;;2.72;100.00;102403.91;5285277;28;20023;-69
2021/11/11 06:21:13;;;;;;;90.18;33.00;;;;;;;2.73;100.00;102411.78;5285475;28;20102;-69
2021/11/11 06:23:44;;;;;;;86.05;31.40;;;;;;;2.74;100.00;102418.78;5285151;28;20019;-69
2021/11/11 06:26:15;;;;;;;79.95;33.40;;;;;;;2.77;100.00;102418.63;5284828;28;20392;-69
2021/11/11 06:28:46;;;;;;;82.00;32.70;;;;;;;2.79;100.00;102426.50;5284411;28;20037;-70
2021/11/11 06:31:17;;;;;;;75.75;31.45;;;;;;;3.06;100.00;102445.44;5285545;28;20509;-70
2021/11/11 06:33:48;;;;;;;82.93;31.25;;;;;;;3.08;100.00;102447.09;5284987;28;20034;-70
2021/11/11 06:36:19;;;;;;;93.82;33.45;;;;;;;2.99;100.00;102441.41;5285211;28;20094;-69
2021/11/11 06:38:50;;;;;;;84.30;31.75;;;;;;;2.97;100.00;102446.78;5284395;28;20072;-70
2021/11/11 06:41:20;;;;;;;82.10;32.17;;;;;;;2.98;100.00;102452.94;5284589;28;20055;-69
2021/11/11 06:43:53;;;;;;;81.75;31.40;;;;;;;3.00;100.00;102448.41;5284801;28;20062;-70
2021/11/11 06:46:24;;;;;;;80.03;31.35;;;;;;;3.08;100.00;102448.88;5284708;28;20023;-70
2021/11/11 06:48:55;;;;;;;76.53;32.25;;;;;;;3.10;100.00;102445.19;5284169;28;20054;-70
2021/11/11 06:51:26;;;;;;;72.90;30.95;;;;;;;3.12;100.00;102445.16;5284653;28;20107;-70
2021/11/11 06:53:56;;;;;;;71.60;30.17;;;;;;;3.11;100.00;102456.66;5284795;28;20058;-70
2021/11/11 06:56:27;;;;;;;77.95;30.50;;;;;;;3.20;100.00;102461.50;5284775;28;20102;-70
2021/11/11 06:58:58;;;;;;;76.65;30.83;;;;;;;3.33;100.00;102465.25;5284201;28;20055;-70
2021/11/11 07:01:28;;;;;;;82.13;30.27;;;;;;;3.25;100.00;102453.31;5349469;22;20773;-74
2021/11/11 07:04:00;;;;;;;82.63;32.63;;;;;;;3.22;100.00;102450.84;5219157;28;20032;-76
2021/11/11 07:06:30;;;;;;;69.68;30.52;;;;;;;3.33;100.00;102461.75;5218764;28;20096;-76
2021/11/11 07:09:02;;;;;;;80.05;28.95;;;;;;;3.39;100.00;102464.06;5220005;28;20020;-76
2021/11/11 07:11:33;;;;;;;84.00;34.13;;;;;;;3.33;100.00;102467.91;5220926;28;20112;-76
2021/11/11 07:14:03;;;;;;;80.32;32.63;;;;;;;3.34;100.00;102474.06;5207043;28;20108;-76
2021/11/11 07:16:34;;;;;;;67.88;30.25;;;;;;;3.41;100.00;102474.59;5199584;28;20025;-75
2021/11/11 07:19:04;;;;;;;85.97;31.75;;;;;;;3.34;100.00;102472.25;5198158;28;20481;-76
2021/11/11 07:21:35;;;;;;;89.80;34.67;;;;;;;3.33;100.00;102472.34;5199760;28;20299;-76
2021/11/11 07:24:05;;;;;;;82.60;32.55;;;;;;;3.34;100.00;102468.75;5200014;28;20028;-75
2021/11/11 07:26:36;;;;;;;77.43;32.65;;;;;;;3.35;100.00;102479.28;5199557;28;20025;-76
2021/11/11 07:29:07;;;;;;;82.05;31.05;;;;;;;3.38;100.00;102476.47;5201560;28;20025;-76
2021/11/11 07:31:37;;;;;;;82.40;31.20;;;;;;;3.41;100.00;102474.59;5220421;28;20037;-75
2021/11/11 07:34:07;;;;;;;81.28;33.10;;;;;;;3.46;100.00;102478.72;5218971;28;20013;-76
2021/11/11 07:36:39;;;;;;;82.60;31.42;;;;;;;3.47;100.00;102476.94;5220254;28;20501;-76
2021/11/11 07:39:10;;;;;;;78.10;31.40;;;;;;;3.46;100.00;102477.84;5219727;28;20505;-76
2021/11/11 07:41:43;;;;;;;77.30;31.95;;;;;;;3.44;100.00;102472.63;5219862;28;20052;-76
2021/11/11 07:44:14;;;;;;;81.70;30.88;;;;;;;3.46;100.00;102475.19;5220030;28;20493;-76
2021/11/11 07:46:44;;;;;;;83.78;32.65;;;;;;;3.48;100.00;102473.34;5220194;28;20059;-76
2021/11/11 07:49:15;;;;;;;77.80;32.33;;;;;;;3.51;100.00;102486.44;5219555;28;20028;-75
2021/11/11 07:51:46;;;;;;;89.97;32.15;;;;;;;3.54;100.00;102481.81;5218811;28;20024;-75
2021/11/11 07:54:17;;;;;;;78.15;30.33;;;;;;;3.61;100.00;102488.53;5219154;28;20113;-75
2021/11/11 07:56:47;;;;;;;80.53;30.75;;;;;;;3.70;100.00;102500.44;5220120;28;20069;-75
2021/11/11 07:59:18;;;;;;;80.43;31.88;;;;;;;3.70;100.00;102504.91;5219170;28;20485;-75
2021/11/11 08:01:48;;;;;;;89.35;32.22;;;;;;;3.70;100.00;102513.72;5201956;28;20033;-75
2021/11/11 08:04:19;;;;;;;79.85;31.33;;;;;;;3.75;100.00;102514.34;5197605;28;20108;-76
2021/11/11 08:06:49;;;;;;;75.13;29.58;;;;;;;3.81;100.00;102510.50;5208711;28;20086;-76
2021/11/11 08:09:20;;;;;;;71.78;28.85;;;;;;;3.81;100.00;102506.03;5219344;28;20071;-76
2021/11/11 08:11:50;;;;;;;78.00;31.25;;;;;;;3.85;100.00;102510.25;5218299;28;20033;-76
2021/11/11 08:14:21;;;;;;;72.57;29.98;;;;;;;3.84;100.00;102510.34;5204724;28;20055;-76
2021/11/11 08:16:52;;;;;;;76.53;31.40;;;;;;;3.86;100.00;102509.31;5197718;28;20026;-76
2021/11/11 08:19:23;;;;;;;77.18;31.95;;;;;;;3.88;100.00;102512.75;5201144;28;20055;-76
2021/11/11 08:21:54;;;;;;;84.97;30.80;;;;;;;3.93;100.00;102511.66;5219712;28;20613;-76
2021/11/11 08:24:24;;;;;;;73.97;31.70;;;;;;;3.94;100.00;102513.38;5218268;28;20096;-76
2021/11/11 08:26:55;;;;;;;80.85;31.52;;;;;;;3.96;100.00;102517.63;5219496;28;20028;-73
2021/11/11 08:29:25;;;;;;;74.13;31.42;;;;;;;3.99;100.00;102529.91;5218871;28;20104;-75
2021/11/11 08:31:56;;;;;;;77.85;31.15;;;;;;;4.04;100.00;102534.03;5220000;28;20031;-75
2021/11/11 08:34:26;;;;;;;77.05;31.15;;;;;;;4.10;100.00;102522.22;5219650;28;20410;-75
2021/11/11 08:36:57;;;;;;;66.88;30.55;;;;;;;4.15;100.00;102515.69;5219657;28;20028;-75
2021/11/11 08:39:27;;;;;;;75.55;32.22;;;;;;;4.20;100.00;102522.56;5219132;28;20051;-76
2021/11/11 08:41:58;;;;;;;79.40;30.98;;;;;;;4.21;100.00;102524.28;5217928;28;20083;-75
2021/11/11 08:44:28;;;;;;;68.50;29.90;;;;;;;4.20;100.00;102520.75;5218092;28;20102;-75
2021/11/11 08:46:59;;;;;;;68.18;30.45;;;;;;;4.23;100.00;102528.56;5219134;28;20473;-75
2021/11/11 08:49:31;;;;;;;71.57;30.70;;;;;;;4.30;100.00;102527.28;5219115;28;20120;-75
2021/11/11 08:52:02;;;;;;;73.75;29.65;;;;;;;4.37;100.00;102531.34;5219627;28;20512;-75
2021/11/11 08:54:32;;;;;;;71.25;29.48;;;;;;;4.46;100.00;102534.41;5218621;28;20036;-75
2021/11/11 08:57:04;;;;;;;77.55;30.55;;;;;;;4.53;100.00;102528.66;5218046;28;20033;-80
2021/11/11 08:59:34;;;;;;;71.47;30.33;;;;;;;4.62;100.00;102525.50;5219124;28;20389;-76
2021/11/11 09:02:05;;;;;;;79.60;29.95;;;;;;;4.66;100.00;102523.50;5205557;28;20036;-75
2021/11/11 09:04:37;;;;;;;69.10;30.10;;;;;;;4.75;100.00;102520.31;5218816;28;20029;-76
2021/11/11 09:07:07;;;;;;;67.22;29.15;;;;;;;4.78;100.00;102522.81;5209683;28;20062;-76
2021/11/11 09:09:38;;;;;;;71.15;29.55;;;;;;;4.79;100.00;102536.97;5198465;28;20029;-76
2021/11/11 09:12:09;;;;;;;71.45;28.52;;;;;;;4.87;100.00;102530.28;5204345;28;20083;-77
2021/11/11 09:14:39;;;;;;;77.05;32.15;;;;;;;4.86;100.00;102530.34;5205549;28;20519;-76
2021/11/11 09:17:10;;;;;;;71.45;29.42;;;;;;;4.91;100.00;102526.47;5202376;28;20033;-76
2021/11/11 09:19:41;;;;;;;72.45;29.92;;;;;;;5.01;100.00;102523.28;5201666;28;20025;-76
2021/11/11 09:22:11;;;;;;;74.70;29.17;;;;;;;5.08;100.00;102524.66;5214736;28;20063;-76
2021/11/11 09:24:42;;;;;;;66.18;29.08;;;;;;;5.19;100.00;102520.41;5222864;28;20392;-76
2021/11/11 09:27:12;;;;;;;73.40;30.77;;;;;;;5.31;100.00;102520.63;5221189;28;20025;-76
2021/11/11 09:29:43;;;;;;;63.97;27.90;;;;;;;5.37;100.00;102518.47;5214057;28;20117;-76
2021/11/11 09:32:13;;;;;;;68.25;29.15;;;;;;;5.46;100.00;102512.56;5201836;28;20018;-76
2021/11/11 09:34:44;;;;;;;72.72;29.35;;;;;;;5.64;100.00;102520.41;5202072;28;20030;-76
2021/11/11 09:37:14;;;;;;;63.72;27.65;;;;;;;5.72;100.00;102515.44;5201331;28;20611;-76
2021/11/11 09:39:45;;;;;;;61.47;27.02;;;;;;;5.72;100.00;102513.66;5202090;28;20086;-77
2021/11/11 09:42:16;;;;;;;65.43;27.20;;;;;;;5.85;100.00;102513.75;5201264;28;20021;-76
2021/11/11 09:44:47;;;;;;;64.18;28.13;;;;;;;5.94;100.00;102513.22;5202005;28;20489;-77
2021/11/11 09:47:18;;;;;;;66.07;25.85;;;;;;;5.97;100.00;102518.38;5201045;28;20029;-76
2021/11/11 09:49:49;;;;;;;63.38;27.35;;;;;;;6.05;100.00;102517.03;5201377;28;20112;-73
2021/11/11 09:52:20;;;;;;;61.35;25.42;;;;;;;6.05;100.00;102514.34;5202227;28;20392;-77
2021/11/11 10:00:29;;;;;;;62.92;27.00;;;;;;;6.27;100.00;102505.84;5205377;28;20503;-78
2021/11/11 10:03:00;;;;;;;62.85;26.73;;;;;;;6.47;100.00;102500.94;5201296;28;20037;-77
2021/11/11 10:05:31;;;;;;;63.70;26.20;;;;;;;6.62;100.00;102506.25;5183629;28;20466;-77
2021/11/11 10:08:04;;;;;;;53.17;23.95;;;;;;;6.72;100.00;102515.34;5220617;28;20111;-77
2021/11/11 10:10:39;;;;;;;58.70;25.02;;;;;;;6.78;100.00;102508.75;5222402;28;20358;-77
2021/11/11 10:13:12;;;;;;;54.50;24.35;;;;;;;6.81;100.00;102506.75;5216846;28;20374;-77
2021/11/11 10:16:03;;;;;;;52.92;24.02;;;;;;;6.92;100.00;102504.22;5200761;28;20638;-76
2021/11/11 10:18:41;;;;;;;50.03;22.38;;;;;;;7.03;100.00;102510.66;5200917;28;20481;-76
2021/11/11 10:21:21;;;;;;;54.85;24.25;;;;;;;7.13;100.00;102509.06;5200617;28;20044;-77
2021/11/11 10:23:52;;;;;;;52.42;24.90;;;;;;;7.22;100.00;102511.97;5199604;28;20404;-77
2021/11/11 10:26:38;;;;;;;57.15;25.77;;;;;;;7.37;100.00;102511.91;5200768;28;20021;-76
2021/11/11 10:29:36;;;;;;;53.25;23.73;;;;;;;7.44;100.00;102508.72;5200607;28;20029;-77
2021/11/11 10:32:22;;;;;;;52.08;23.55;;;;;;;7.53;100.00;102512.56;5214127;28;20028;-77
2021/11/11 10:35:07;;;;;;;44.08;20.80;;;;;;;7.58;100.00;102506.88;5221669;28;20040;-77
2021/11/11 10:37:42;;;;;;;51.87;23.50;;;;;;;7.69;100.00;102515.03;5219874;28;20025;-76
2021/11/11 10:40:17;;;;;;;45.35;22.20;;;;;;;7.65;100.00;102517.06;5222011;28;20017;-77
2021/11/11 10:42:51;;;;;;;52.08;22.63;;;;;;;7.68;100.00;102513.31;5221170;28;20112;-77
2021/11/11 10:45:26;;;;;;;50.00;21.77;;;;;;;7.75;100.00;102509.25;5220831;28;20020;-78
2021/11/11 10:47:59;;;;;;;;;;;;;;;7.84;100.00;102511.28;5220234;28;20643;-78
2021/11/11 10:50:36;;;;;;;52.72;23.40;;;;;;;7.91;100.00;102504.53;5219460;28;19951;-77
2021/11/11 10:53:10;;;;;;;44.85;21.33;;;;;;;8.00;100.00;102505.72;5221219;28;20094;-77
2021/11/11 10:55:47;;;;;;;53.70;22.42;;;;;;;8.04;100.00;102505.38;5213021;28;20105;-77
2021/11/11 10:58:21;;;;;;;48.72;22.65;;;;;;;8.04;100.00;102501.88;5200265;28;20557;-76
2021/11/11 11:00:57;;;;;;;53.13;23.23;;;;;;;8.08;100.00;102497.13;5217843;28;20036;-77
2021/11/11 11:03:31;;;;;;;49.83;22.00;;;;;;;8.13;100.00;102497.66;5219810;28;20500;-77
2021/11/11 11:06:06;;;;;;;51.38;22.48;;;;;;;8.20;100.00;102502.47;5219507;28;20021;-77
2021/11/11 11:08:40;;;;;;;55.95;24.90;;;;;;;8.23;100.00;102501.38;5200267;28;20374;-77
2021/11/11 11:11:15;;;;;;;45.60;21.80;;;;;;;8.29;100.00;102504.47;5199405;28;20061;-77
2021/11/11 11:13:48;;;;;;;44.40;22.38;;;;;;;8.28;100.00;102493.88;5205948;28;20036;-77
2021/11/11 11:16:20;;;;;;;50.47;21.98;;;;;;;8.28;100.00;102488.53;5199058;28;20060;-76
2021/11/11 11:18:55;;;;;;;50.83;22.65;;;;;;;8.36;100.00;102488.88;5199831;28;20022;-76
2021/11/11 11:21:29;;;;;;;45.00;21.85;;;;;;;8.43;100.00;102482.09;5220216;28;20028;-76
2021/11/11 11:24:03;;;;;;;51.30;21.80;;;;;;;8.52;100.00;102485.91;5219514;28;20076;-77
2021/11/11 11:26:39;;;;;;;46.47;20.90;;;;;;;8.55;100.00;102475.00;5220332;28;20052;-76
2021/11/11 11:29:18;;;;;;;43.35;20.50;;;;;;;8.62;100.00;102478.06;5218938;28;20270;-76
2021/11/11 11:31:54;;;;;;;49.90;20.67;;;;;;;8.68;100.00;102477.59;5220695;28;20094;-76
2021/11/11 11:34:27;;;;;;;41.25;19.50;;;;;;;8.74;100.00;102479.84;5219716;28;20032;-76
2021/11/11 11:37:00;;;;;;;50.28;21.48;;;;;;;8.76;100.00;102478.75;5219854;28;20078;-76
2021/11/11 11:39:35;;;;;;;40.90;19.83;;;;;;;8.78;100.00;102481.31;5220071;28;20119;-76
2021/11/11 11:42:09;;;;;;;43.50;20.67;;;;;;;8.84;100.00;102488.03;5202972;28;20430;-76
2021/11/11 11:44:49;;;;;;;49.58;19.88;;;;;;;8.91;100.00;102489.28;5220468;28;20029;-77
2021/11/11 11:47:23;;;;;;;42.38;19.67;;;;;;;8.90;100.00;102476.88;5219781;28;20078;-76
2021/11/11 11:49:59;;;;;;;42.78;19.35;;;;;;;8.94;100.00;102476.53;5219023;28;20468;-76
2021/11/11 11:52:33;;;;;;;48.45;20.27;;;;;;;8.96;100.00;102479.06;5220994;28;20488;-77
2021/11/11 11:57:58;;;;;;;56.20;20.75;;;;;;;9.14;100.00;102479.50;5220230;28;20249;-76